Time;durP1;ratioP1;P1;durP2;ratioP2;P2;SDS_P1;SDS_P2;PMS_P1;PMS_P2;Temp;Humidity;BMP_temperature;BMP_pressure;BME280_temperature;BME280_humidity;BME280_pressure;Samples;Min_cycle;Max_cycle;Signal;HPM_P1;HPM_P2
2023/02/06 00:01:06;;;;;;;1.00;0.55;;;28.40;41.10;;;;;;5091400;28;20665;-49
2023/02/06 00:03:37;;;;;;;2.33;0.60;;;28.50;41.20;;;;;;5091423;28;20190;-50
2023/02/06 00:06:08;;;;;;;1.13;0.60;;;28.50;41.20;;;;;;5091210;28;20206;-51
2023/02/06 00:08:38;;;;;;;0.95;0.60;;;28.50;41.20;;;;;;5090792;28;20218;-50
2023/02/06 00:11:13;;;;;;;0.93;0.50;;;28.50;41.10;;;;;;5091258;28;20190;-50
2023/02/06 00:13:44;;;;;;;1.00;0.77;;;28.60;41.10;;;;;;5090998;28;20559;-49
2023/02/06 00:16:22;;;;;;;2.53;0.77;;;28.60;41.10;;;;;;5091079;28;20247;-49
2023/02/06 00:18:54;;;;;;;2.22;0.63;;;28.60;41.20;;;;;;5094678;28;20222;-50
2023/02/06 00:21:26;;;;;;;1.30;0.52;;;28.60;41.20;;;;;;5095271;28;20198;-51
2023/02/06 00:23:58;;;;;;;1.23;0.70;;;28.60;41.20;;;;;;5094890;28;20285;-48
2023/02/06 00:26:31;;;;;;;0.57;0.50;;;28.60;41.20;;;;;;5094714;28;20194;-49
2023/02/06 00:29:02;;;;;;;1.02;0.52;;;28.70;41.40;;;;;;5094238;28;20218;-49
2023/02/06 00:31:33;;;;;;;0.80;0.50;;;28.70;41.40;;;;;;5094131;28;20209;-50
2023/02/06 00:34:04;;;;;;;0.70;0.60;;;28.70;41.50;;;;;;5094098;28;20556;-50
2023/02/06 00:36:35;;;;;;;0.85;0.52;;;28.70;41.50;;;;;;5094255;28;20225;-49
2023/02/06 00:39:06;;;;;;;1.25;0.60;;;28.70;41.40;;;;;;5094091;28;20225;-49
2023/02/06 00:41:38;;;;;;;0.60;0.50;;;28.70;41.30;;;;;;5094444;28;20201;-50
2023/02/06 00:44:09;;;;;;;0.60;0.40;;;28.80;41.30;;;;;;5094695;28;20194;-49
2023/02/06 00:46:40;;;;;;;1.52;0.47;;;28.80;41.20;;;;;;5094457;28;20205;-51
2023/02/06 00:49:10;;;;;;;1.13;0.40;;;28.80;41.20;;;;;;5094277;28;20218;-50
2023/02/06 00:51:41;;;;;;;0.80;0.50;;;28.80;41.20;;;;;;5094424;28;20662;-51
2023/02/06 00:54:12;;;;;;;0.45;0.40;;;28.80;41.20;;;;;;5094427;28;20213;-50
2023/02/06 00:56:45;;;;;;;0.95;0.50;;;28.90;41.20;;;;;;5094007;28;20194;-49
2023/02/06 00:59:15;;;;;;;1.40;0.50;;;28.90;41.20;;;;;;5094272;28;20682;-51
2023/02/06 01:01:46;;;;;;;0.55;0.30;;;28.90;41.20;;;;;;5093926;28;20202;-50
2023/02/06 01:04:17;;;;;;;0.68;0.40;;;29.00;41.20;;;;;;5093654;28;20194;-49
2023/02/06 01:06:47;;;;;;;0.57;0.35;;;29.00;41.30;;;;;;5093041;28;20201;-56
2023/02/06 01:09:18;;;;;;;1.48;0.47;;;29.00;41.40;;;;;;5073524;28;20215;-53
2023/02/06 01:11:51;;;;;;;0.57;0.40;;;29.10;41.40;;;;;;5073669;28;20199;-49
2023/02/06 01:14:21;;;;;;;0.73;0.40;;;29.00;41.50;;;;;;5073502;28;20678;-48
2023/02/06 01:16:52;;;;;;;0.73;0.35;;;29.10;41.50;;;;;;5073764;28;20685;-55
2023/02/06 01:19:23;;;;;;;0.80;0.40;;;29.10;41.50;;;;;;5073541;28;20593;-49
2023/02/06 01:21:53;;;;;;;0.30;0.20;;;29.10;41.50;;;;;;5076344;28;20183;-49
2023/02/06 01:24:24;;;;;;;1.45;0.60;;;29.20;41.50;;;;;;5073416;28;20564;-51
2023/02/06 01:26:56;;;;;;;0.30;0.30;;;29.20;41.30;;;;;;5073419;28;20194;-51
2023/02/06 01:29:27;;;;;;;0.30;0.30;;;29.20;41.20;;;;;;5072761;28;20222;-51
2023/02/06 01:31:58;;;;;;;0.43;0.20;;;29.20;41.10;;;;;;5075834;28;20187;-51
2023/02/06 01:34:28;;;;;;;1.25;0.50;;;29.20;41.00;;;;;;5073082;28;20201;-49
2023/02/06 01:36:59;;;;;;;0.93;0.40;;;29.30;40.90;;;;;;5075406;28;20585;-48
2023/02/06 01:39:30;;;;;;;1.05;0.40;;;29.30;40.80;;;;;;5093427;28;20214;-48
2023/02/06 01:42:03;;;;;;;1.42;0.60;;;29.30;40.80;;;;;;5093582;28;20201;-48
2023/02/06 01:44:35;;;;;;;0.50;0.30;;;29.40;40.70;;;;;;5093110;28;20201;-50
2023/02/06 01:47:05;;;;;;;0.75;0.30;;;29.40;40.60;;;;;;5093157;28;20194;-48
2023/02/06 01:49:39;;;;;;;0.40;0.30;;;29.40;40.70;;;;;;5092853;28;20222;-49
2023/02/06 01:52:14;;;;;;;0.98;0.43;;;29.40;40.80;;;;;;5093021;28;20205;-48
2023/02/06 01:54:48;;;;;;;1.58;0.40;;;29.40;40.90;;;;;;5092971;28;20254;-49
2023/02/06 01:57:22;;;;;;;0.32;0.30;;;29.50;40.90;;;;;;5092843;28;20209;-48
2023/02/06 01:59:56;;;;;;;0.52;0.40;;;29.50;40.90;;;;;;5092674;28;20221;-50
2023/02/06 02:02:29;;;;;;;0.93;0.30;;;29.60;41.40;;;;;;5093034;28;20205;-50
2023/02/06 02:05:00;;;;;;;0.88;0.30;;;29.50;41.00;;;;;;5092961;28;20193;-49
2023/02/06 02:07:37;;;;;;;0.77;0.40;;;29.50;41.00;;;;;;5091987;28;20201;-48
2023/02/06 02:10:08;;;;;;;1.38;0.28;;;29.60;41.00;;;;;;5092318;28;20213;-50
2023/02/06 02:12:41;;;;;;;1.52;0.60;;;29.60;40.80;;;;;;5092613;28;20194;-49
2023/02/06 02:15:12;;;;;;;0.88;0.32;;;29.60;40.60;;;;;;5092342;28;20194;-48
2023/02/06 02:17:54;;;;;;;0.30;0.30;;;29.70;40.60;;;;;;5092591;28;20216;-47
2023/02/06 02:20:58;;;;;;;0.73;0.30;;;29.70;40.60;;;;;;5092813;28;20221;-71
2023/02/06 02:23:39;;;;;;;1.08;0.50;;;29.70;40.50;;;;;;5058859;28;20276;-48
2023/02/06 02:26:36;;;;;;;0.30;0.25;;;29.70;40.50;;;;;;5092339;28;20205;-49
2023/02/06 02:29:53;;;;;;;0.28;0.20;;;29.80;40.40;;;;;;5092601;28;20214;-48
2023/02/06 02:32:56;;;;;;;0.40;0.38;;;29.80;40.40;;;;;;5092495;28;20468;-47
2023/02/06 02:35:32;;;;;;;0.30;0.25;;;29.80;40.40;;;;;;5092577;28;20649;-50
2023/02/06 02:38:20;;;;;;;0.40;0.22;;;29.90;40.50;;;;;;5092053;28;20197;-49
2023/02/06 02:40:59;;;;;;;0.55;0.30;;;29.90;40.70;;;;;;5071315;28;20267;-47
2023/02/06 02:43:41;;;;;;;0.55;0.32;;;30.00;40.70;;;;;;5083734;28;20190;-47
2023/02/06 02:46:19;;;;;;;0.32;0.30;;;30.00;40.60;;;;;;5092087;28;20198;-51
2023/02/06 02:48:51;;;;;;;2.05;0.35;;;30.00;40.70;;;;;;5091929;28;20218;-49
2023/02/06 02:51:25;;;;;;;0.75;0.20;;;30.00;40.70;;;;;;5091932;28;20201;-49
2023/02/06 02:53:58;;;;;;;1.02;0.40;;;30.10;40.70;;;;;;5091672;28;20204;-48
2023/02/06 02:56:29;;;;;;;0.55;0.30;;;30.10;40.70;;;;;;5091845;28;20198;-48
2023/02/06 02:59:02;;;;;;;0.85;0.30;;;30.10;40.60;;;;;;5092044;28;20814;-49
2023/02/06 03:01:37;;;;;;;0.55;0.30;;;30.10;40.40;;;;;;5091402;28;20221;-51
2023/02/06 03:04:13;;;;;;;0.45;0.30;;;30.20;40.40;;;;;;5091368;28;20189;-47
2023/02/06 03:07:01;;;;;;;0.60;0.30;;;30.20;40.40;;;;;;5090739;28;20197;-48
2023/02/06 03:09:42;;;;;;;0.85;0.30;;;30.30;40.40;;;;;;5071263;28;20809;-48
2023/02/06 03:12:19;;;;;;;0.28;0.20;;;30.30;40.30;;;;;;5071721;28;20206;-50
2023/02/06 03:14:56;;;;;;;0.30;0.17;;;30.30;40.20;;;;;;5071556;28;20194;-48
2023/02/06 03:17:35;;;;;;;2.53;0.40;;;30.40;40.20;;;;;;5088386;28;20664;-48
2023/02/06 03:20:08;;;;;;;0.40;0.20;;;30.40;40.10;;;;;;5091513;28;20225;-48
2023/02/06 03:22:42;;;;;;;0.50;0.30;;;30.50;40.20;;;;;;5092150;28;20194;-50
2023/02/06 03:25:15;;;;;;;1.33;0.20;;;30.50;40.20;;;;;;5091688;28;20194;-52
2023/02/06 03:27:47;;;;;;;0.20;0.20;;;30.50;40.20;;;;;;5091816;28;20190;-49
2023/02/06 03:30:21;;;;;;;0.20;0.20;;;30.60;40.30;;;;;;5091910;28;20299;-49
2023/02/06 03:32:55;;;;;;;0.20;0.20;;;30.60;40.20;;;;;;5091232;28;20197;-47
2023/02/06 03:35:31;;;;;;;0.30;0.30;;;30.60;40.20;;;;;;5091230;28;20198;-47
2023/02/06 03:38:04;;;;;;;0.43;0.20;;;30.60;40.20;;;;;;5090634;28;20193;-48
2023/02/06 03:40:36;;;;;;;0.90;0.30;;;30.70;40.20;;;;;;5071310;28;20575;-48
2023/02/06 03:43:08;;;;;;;0.20;0.20;;;30.70;40.10;;;;;;5071049;28;21006;-49
2023/02/06 03:45:42;;;;;;;0.57;0.17;;;30.80;40.10;;;;;;5071033;28;20202;-49
2023/02/06 03:48:17;;;;;;;0.70;0.47;;;30.80;40.10;;;;;;5070809;28;20220;-49
2023/02/06 03:50:53;;;;;;;0.52;0.20;;;30.80;40.10;;;;;;5071147;28;20194;-48
2023/02/06 03:53:27;;;;;;;0.57;0.30;;;30.90;40.00;;;;;;5074545;28;20660;-48
2023/02/06 03:56:07;;;;;;;0.57;0.32;;;30.90;40.00;;;;;;5075174;28;20567;-51
2023/02/06 03:58:37;;;;;;;0.10;0.10;;;30.90;39.80;;;;;;5074711;28;20597;-48
2023/02/06 04:01:09;;;;;;;0.32;0.30;;;31.00;39.80;;;;;;5074869;28;20222;-48
2023/02/06 04:03:40;;;;;;;0.55;0.40;;;31.10;39.80;;;;;;5075225;28;20206;-49
2023/02/06 04:06:11;;;;;;;0.28;0.28;;;31.10;39.70;;;;;;5074986;28;20206;-48
2023/02/06 04:08:43;;;;;;;0.85;0.30;;;31.10;39.70;;;;;;5074586;28;20226;-49
2023/02/06 04:11:14;;;;;;;0.63;0.40;;;31.20;39.60;;;;;;5074794;28;20204;-50
2023/02/06 04:13:45;;;;;;;0.55;0.30;;;31.20;39.60;;;;;;5074805;28;20191;-50
2023/02/06 04:16:15;;;;;;;0.52;0.30;;;31.20;39.60;;;;;;5074872;28;20205;-49
2023/02/06 04:18:46;;;;;;;0.52;0.30;;;31.20;39.60;;;;;;5074469;28;20217;-48
2023/02/06 04:21:17;;;;;;;1.42;0.50;;;31.30;39.70;;;;;;5075080;28;20225;-52
2023/02/06 04:23:49;;;;;;;0.80;0.47;;;31.30;39.70;;;;;;5074486;28;20202;-50
2023/02/06 04:26:20;;;;;;;1.13;0.57;;;31.30;39.70;;;;;;5074861;28;20201;-51
2023/02/06 04:28:50;;;;;;;1.08;0.50;;;31.30;39.70;;;;;;5074278;28;20214;-50
2023/02/06 04:31:21;;;;;;;0.88;0.50;;;31.40;39.90;;;;;;5074509;28;20662;-54
2023/02/06 04:33:52;;;;;;;0.80;0.50;;;31.40;40.00;;;;;;5074413;28;20206;-52
2023/02/06 04:36:22;;;;;;;1.13;0.60;;;31.40;40.00;;;;;;5074588;28;20198;-54
2023/02/06 04:38:55;;;;;;;1.77;0.80;;;31.40;40.00;;;;;;5078007;28;20210;-52
2023/02/06 04:41:26;;;;;;;1.35;0.80;;;31.40;40.00;;;;;;5094202;28;20229;-53
2023/02/06 04:43:56;;;;;;;2.45;0.80;;;31.40;39.90;;;;;;5094085;28;20194;-52
2023/02/06 04:46:27;;;;;;;1.48;0.65;;;31.40;39.80;;;;;;5093656;28;20556;-47
2023/02/06 04:48:58;;;;;;;1.63;0.95;;;31.40;39.80;;;;;;5087093;28;20214;-49
2023/02/06 04:51:29;;;;;;;3.03;1.17;;;31.40;39.60;;;;;;5082552;28;20554;-49
2023/02/06 04:54:02;;;;;;;2.35;1.10;;;31.50;39.40;;;;;;5090767;28;20199;-51
2023/02/06 04:56:33;;;;;;;2.53;1.17;;;31.50;39.40;;;;;;5073594;28;20198;-53
2023/02/06 04:59:04;;;;;;;2.75;1.40;;;31.50;39.30;;;;;;5073313;28;20223;-53
2023/02/06 05:01:34;;;;;;;3.30;1.38;;;31.50;39.00;;;;;;5072059;28;20337;-53
2023/02/06 05:04:05;;;;;;;3.63;1.50;;;31.50;38.90;;;;;;5077959;28;20202;-52
2023/02/06 05:06:36;;;;;;;2.00;1.33;;;31.50;38.90;;;;;;5089550;28;20201;-52
2023/02/06 05:09:10;;;;;;;2.67;1.13;;;31.50;38.90;;;;;;5075810;28;20214;-53
2023/02/06 05:11:41;;;;;;;2.25;1.30;;;31.50;38.90;;;;;;5082851;28;20198;-52
2023/02/06 05:14:11;;;;;;;2.72;1.30;;;31.60;38.90;;;;;;5075170;28;20217;-52
2023/02/06 05:16:42;;;;;;;2.42;1.23;;;31.60;38.80;;;;;;5073548;28;20208;-52
2023/02/06 05:19:13;;;;;;;3.20;1.50;;;31.60;38.80;;;;;;5072900;28;20596;-52
2023/02/06 05:21:43;;;;;;;3.83;1.30;;;31.50;38.70;;;;;;5073949;28;20613;-53
2023/02/06 05:24:16;;;;;;;2.00;1.48;;;31.60;38.70;;;;;;5073421;28;20195;-52
2023/02/06 05:26:47;;;;;;;2.30;1.33;;;31.60;38.70;;;;;;5073264;28;20569;-54
2023/02/06 05:29:17;;;;;;;2.80;1.25;;;31.60;38.70;;;;;;5073194;28;20225;-52
2023/02/06 05:31:48;;;;;;;4.80;1.58;;;31.60;38.60;;;;;;5075660;28;20194;-54
2023/02/06 05:34:19;;;;;;;2.70;1.35;;;31.60;38.60;;;;;;5072770;28;20433;-53
2023/02/06 05:36:49;;;;;;;3.25;1.17;;;31.60;38.60;;;;;;5073695;28;20235;-55
2023/02/06 05:39:22;;;;;;;2.78;1.25;;;31.70;38.70;;;;;;5093091;28;20228;-50
2023/02/06 05:41:53;;;;;;;3.90;1.33;;;31.70;38.60;;;;;;5093070;28;20217;-52
2023/02/06 05:44:24;;;;;;;2.60;1.33;;;31.70;38.60;;;;;;5093321;28;20197;-55
2023/02/06 05:46:54;;;;;;;2.05;0.88;;;31.70;38.70;;;;;;5093364;28;20204;-50
2023/02/06 05:49:25;;;;;;;1.95;1.00;;;31.70;38.70;;;;;;5092790;28;20225;-52
2023/02/06 05:51:56;;;;;;;2.22;1.25;;;31.80;38.80;;;;;;5092932;28;20202;-52
2023/02/06 05:54:28;;;;;;;2.20;1.20;;;31.80;38.90;;;;;;5092993;28;20200;-55
2023/02/06 05:56:59;;;;;;;1.60;1.05;;;31.80;39.00;;;;;;5092911;28;20671;-56
2023/02/06 05:59:29;;;;;;;1.60;1.02;;;31.80;39.70;;;;;;5092082;28;20574;-53
2023/02/06 06:02:00;;;;;;;2.33;1.10;;;31.80;39.20;;;;;;5092096;28;20232;-49
2023/02/06 06:04:34;;;;;;;1.83;1.00;;;31.80;39.20;;;;;;5092488;28;20194;-56
2023/02/06 06:07:05;;;;;;;1.90;1.05;;;31.80;39.10;;;;;;5092255;28;20197;-48
2023/02/06 06:09:37;;;;;;;2.53;1.00;;;31.80;39.10;;;;;;5092626;28;20296;-54
2023/02/06 06:12:08;;;;;;;2.17;1.25;;;31.80;38.90;;;;;;5092785;28;20657;-54
2023/02/06 06:14:39;;;;;;;4.22;1.10;;;31.80;38.60;;;;;;5092180;28;20194;-50
2023/02/06 06:17:10;;;;;;;2.33;0.80;;;31.80;38.40;;;;;;5092606;28;20193;-49
2023/02/06 06:19:40;;;;;;;2.45;1.15;;;31.80;38.50;;;;;;5092353;28;20214;-56
2023/02/06 06:22:11;;;;;;;2.65;1.10;;;31.80;38.40;;;;;;5092762;28;20225;-53
2023/02/06 06:24:44;;;;;;;2.85;1.10;;;31.90;38.70;;;;;;5092619;28;20229;-53
2023/02/06 06:27:15;;;;;;;2.53;0.90;;;31.90;38.60;;;;;;5092695;28;20193;-50
2023/02/06 06:29:45;;;;;;;2.70;1.00;;;31.80;38.60;;;;;;5092423;28;20213;-55
2023/02/06 06:32:16;;;;;;;2.58;1.10;;;31.80;38.80;;;;;;5092409;28;20194;-51
2023/02/06 06:34:47;;;;;;;2.63;1.00;;;31.90;38.90;;;;;;5092732;28;20568;-55
2023/02/06 06:37:17;;;;;;;4.05;1.23;;;31.80;38.90;;;;;;5092141;28;20193;-51
2023/02/06 06:39:50;;;;;;;2.42;1.10;;;31.90;39.00;;;;;;5092277;28;20217;-54
2023/02/06 06:42:20;;;;;;;2.55;1.10;;;31.80;38.90;;;;;;5091868;28;20225;-54
2023/02/06 06:44:51;;;;;;;1.75;0.90;;;31.80;39.00;;;;;;5092190;28;20676;-53
2023/02/06 06:47:22;;;;;;;1.95;1.10;;;31.80;39.00;;;;;;5092257;28;20563;-54
2023/02/06 06:49:52;;;;;;;3.38;1.10;;;31.80;39.00;;;;;;5091247;28;20210;-51
2023/02/06 06:52:23;;;;;;;2.30;1.10;;;31.80;39.00;;;;;;5091922;28;20217;-50
2023/02/06 06:54:56;;;;;;;2.78;1.10;;;31.80;39.10;;;;;;5091986;28;20197;-55
2023/02/06 06:57:26;;;;;;;2.67;1.20;;;31.80;39.10;;;;;;5092301;28;20198;-50
2023/02/06 06:59:57;;;;;;;2.85;1.40;;;31.70;39.20;;;;;;5091985;28;20573;-55
2023/02/06 07:02:29;;;;;;;3.45;1.00;;;31.80;39.30;;;;;;5091802;28;20774;-52
2023/02/06 07:05:00;;;;;;;3.00;1.10;;;31.70;39.20;;;;;;5091691;28;20200;-52
2023/02/06 07:07:31;;;;;;;2.20;1.08;;;31.70;39.40;;;;;;5084319;28;20203;-53
2023/02/06 07:10:05;;;;;;;4.50;1.15;;;31.70;39.50;;;;;;5071629;28;20210;-53
2023/02/06 07:12:35;;;;;;;3.40;1.00;;;31.70;39.70;;;;;;5071377;28;20201;-54
2023/02/06 07:15:07;;;;;;;3.92;1.00;;;31.60;39.80;;;;;;5071629;28;20563;-53
2023/02/06 07:17:38;;;;;;;2.40;1.27;;;31.60;40.00;;;;;;5071336;28;20202;-49
2023/02/06 07:20:09;;;;;;;3.20;1.08;;;31.60;40.10;;;;;;5070696;28;20218;-50
2023/02/06 07:22:40;;;;;;;3.35;1.00;;;31.60;40.30;;;;;;5073374;28;20214;-54
2023/02/06 07:25:12;;;;;;;3.10;1.15;;;31.50;40.20;;;;;;5086421;28;20201;-55
2023/02/06 07:27:43;;;;;;;2.08;1.00;;;31.50;40.00;;;;;;5070387;28;20738;-52
2023/02/06 07:30:14;;;;;;;2.80;1.08;;;31.50;39.90;;;;;;5070110;28;20225;-51
2023/02/06 07:32:45;;;;;;;3.17;1.20;;;31.50;40.00;;;;;;5071137;28;20203;-52
2023/02/06 07:35:16;;;;;;;2.90;1.42;;;31.40;40.00;;;;;;5071075;28;20194;-49
2023/02/06 07:37:47;;;;;;;5.10;1.10;;;31.30;40.10;;;;;;5070470;28;20206;-55
2023/02/06 07:40:19;;;;;;;2.42;1.02;;;31.30;40.20;;;;;;5070561;28;20218;-53
2023/02/06 07:42:50;;;;;;;3.22;1.02;;;31.30;40.30;;;;;;5070509;28;20218;-52
2023/02/06 07:45:21;;;;;;;3.35;1.30;;;31.20;40.40;;;;;;5071400;28;20190;-54
2023/02/06 07:47:51;;;;;;;3.88;1.17;;;31.20;40.40;;;;;;5070865;28;20221;-53
2023/02/06 07:50:22;;;;;;;2.78;1.02;;;31.20;40.30;;;;;;5070787;28;20191;-53
2023/02/06 07:52:53;;;;;;;3.30;1.20;;;31.10;40.20;;;;;;5070775;28;20190;-54
2023/02/06 07:55:25;;;;;;;4.22;1.20;;;31.10;40.30;;;;;;5071170;28;20221;-54
2023/02/06 07:57:57;;;;;;;2.70;1.23;;;31.00;40.20;;;;;;5070799;28;20425;-51
2023/02/06 08:00:28;;;;;;;4.40;1.10;;;31.00;40.30;;;;;;5071018;28;20206;-51
2023/02/06 08:02:58;;;;;;;3.67;1.40;;;31.00;40.30;;;;;;5071056;28;20597;-55
2023/02/06 08:05:32;;;;;;;3.47;1.60;;;30.90;40.00;;;;;;5071049;28;20210;-53
2023/02/06 08:08:03;;;;;;;2.13;1.10;;;30.90;39.40;;;;;;5070292;28;20214;-50
2023/02/06 08:10:35;;;;;;;6.65;1.55;;;30.90;39.40;;;;;;5070971;28;20611;-53
2023/02/06 08:13:06;;;;;;;2.85;1.20;;;30.80;39.50;;;;;;5070867;28;20210;-50
2023/02/06 08:15:37;;;;;;;4.65;1.15;;;30.70;39.50;;;;;;5070669;28;20195;-53
2023/02/06 08:18:08;;;;;;;4.97;1.33;;;30.70;39.70;;;;;;5070903;28;20199;-54
2023/02/06 08:20:38;;;;;;;5.35;1.30;;;30.70;39.70;;;;;;5070565;28;20211;-51
2023/02/06 08:23:09;;;;;;;4.75;1.35;;;30.60;39.70;;;;;;5069783;28;20713;-51
2023/02/06 08:25:42;;;;;;;4.35;1.48;;;30.60;39.70;;;;;;5070667;28;20218;-49
2023/02/06 08:28:13;;;;;;;3.20;1.15;;;30.60;39.80;;;;;;5070793;28;20195;-51
2023/02/06 08:30:44;;;;;;;3.40;1.20;;;30.50;40.00;;;;;;5070902;28;20286;-49
2023/02/06 08:33:14;;;;;;;4.75;1.38;;;30.50;40.10;;;;;;5070709;28;20199;-49
2023/02/06 08:35:45;;;;;;;4.45;1.25;;;30.50;40.40;;;;;;5070554;28;20202;-51
2023/02/06 08:38:16;;;;;;;5.07;1.15;;;30.40;40.70;;;;;;5070426;28;20218;-52
2023/02/06 08:40:48;;;;;;;4.03;1.42;;;30.40;40.90;;;;;;5074279;28;20206;-54
2023/02/06 08:43:19;;;;;;;4.25;1.50;;;30.40;41.10;;;;;;5074124;28;20226;-52
2023/02/06 08:45:51;;;;;;;5.10;1.65;;;30.30;41.00;;;;;;5074300;28;20198;-53
2023/02/06 08:48:22;;;;;;;6.28;1.52;;;30.30;41.10;;;;;;5080326;28;20214;-49
2023/02/06 08:50:53;;;;;;;4.85;1.42;;;30.30;41.20;;;;;;5094125;28;20670;-56
2023/02/06 08:53:23;;;;;;;6.00;1.50;;;30.30;41.90;;;;;;5094211;28;20201;-52
2023/02/06 08:56:00;;;;;;;4.90;1.40;;;30.20;41.20;;;;;;5094332;28;20198;-53
2023/02/06 08:58:31;;;;;;;3.53;1.45;;;30.20;41.40;;;;;;5094027;28;20539;-50
2023/02/06 09:01:07;;;;;;;5.10;2.13;;;30.20;41.40;;;;;;5093762;28;20200;-53
2023/02/06 09:03:39;;;;;;;6.53;2.25;;;30.20;41.50;;;;;;5093893;28;20265;-53
2023/02/06 09:06:10;;;;;;;3.80;1.52;;;30.10;41.40;;;;;;5094109;28;20198;-50
2023/02/06 09:08:41;;;;;;;4.32;1.88;;;30.10;41.50;;;;;;5077271;28;20230;-53
2023/02/06 09:11:15;;;;;;;6.13;1.95;;;30.10;41.60;;;;;;5073717;28;20195;-54
2023/02/06 09:13:47;;;;;;;5.70;2.20;;;30.10;41.70;;;;;;5073772;28;20278;-51
2023/02/06 09:16:19;;;;;;;5.78;2.08;;;30.00;41.70;;;;;;5073635;28;20256;-50
2023/02/06 09:18:50;;;;;;;3.63;1.70;;;30.00;41.90;;;;;;5073470;28;20219;-52
2023/02/06 09:21:21;;;;;;;4.95;2.10;;;30.00;42.10;;;;;;5073701;28;20195;-55
2023/02/06 09:23:54;;;;;;;4.43;2.00;;;29.90;42.20;;;;;;5073830;28;20569;-50
2023/02/06 09:26:29;;;;;;;3.20;1.65;;;29.90;42.30;;;;;;5073295;28;20194;-53
2023/02/06 09:29:01;;;;;;;5.13;1.67;;;29.90;42.40;;;;;;5078507;28;20693;-52
2023/02/06 09:31:33;;;;;;;6.50;2.10;;;29.80;42.40;;;;;;5073738;28;20282;-50
2023/02/06 09:34:04;;;;;;;4.78;1.98;;;29.80;42.40;;;;;;5073484;28;20195;-54
2023/02/06 09:36:36;;;;;;;4.75;1.80;;;29.80;42.40;;;;;;5073378;28;20202;-52
2023/02/06 09:39:08;;;;;;;3.60;1.58;;;29.80;42.40;;;;;;5093371;28;20218;-52
2023/02/06 09:41:44;;;;;;;4.88;2.08;;;29.70;42.50;;;;;;5093720;28;20569;-53
2023/02/06 09:44:21;;;;;;;5.28;2.00;;;29.70;42.50;;;;;;5093279;28;20276;-54
2023/02/06 09:46:54;;;;;;;4.75;1.50;;;29.70;42.50;;;;;;5093596;28;20229;-50
2023/02/06 09:49:30;;;;;;;5.70;1.88;;;29.70;42.50;;;;;;5092797;28;20219;-53
2023/02/06 09:52:27;;;;;;;3.65;1.70;;;29.70;42.60;;;;;;5093067;28;20258;-53
2023/02/06 09:55:07;;;;;;;4.43;1.40;;;29.60;42.50;;;;;;5060039;28;20358;-51
2023/02/06 09:57:46;;;;;;;5.05;1.83;;;29.60;42.50;;;;;;5093065;28;20733;-52
2023/02/06 10:00:33;;;;;;;4.15;1.55;;;29.50;42.50;;;;;;5093026;28;20217;-53
2023/02/06 10:03:18;;;;;;;3.30;1.65;;;29.50;42.50;;;;;;5092666;28;20721;-54
2023/02/06 10:05:55;;;;;;;3.58;1.50;;;29.50;42.60;;;;;;5092375;28;20205;-52
2023/02/06 10:08:30;;;;;;;3.30;1.63;;;29.40;42.60;;;;;;5092728;28;20218;-50
2023/02/06 10:11:04;;;;;;;5.65;1.77;;;29.40;42.60;;;;;;5093048;28;20197;-53
2023/02/06 10:13:42;;;;;;;2.80;1.58;;;29.30;42.60;;;;;;5093164;28;20657;-48
2023/02/06 10:16:28;;;;;;;3.78;1.40;;;29.30;42.70;;;;;;5092689;28;20557;-51
2023/02/06 10:19:04;;;;;;;2.13;1.20;;;29.30;42.70;;;;;;5092270;28;20573;-49
2023/02/06 10:21:40;;;;;;;3.33;1.40;;;29.20;42.70;;;;;;5092435;28;20190;-50
2023/02/06 10:24:16;;;;;;;3.35;1.70;;;29.20;42.70;;;;;;5092496;28;20197;-54
2023/02/06 10:26:48;;;;;;;4.57;1.63;;;29.20;42.70;;;;;;5092551;28;20194;-53
2023/02/06 10:29:26;;;;;;;3.35;1.17;;;29.20;42.70;;;;;;5092909;28;20252;-54
2023/02/06 10:32:05;;;;;;;3.03;1.48;;;29.10;42.80;;;;;;5092183;28;20197;-53
2023/02/06 10:35:06;;;;;;;2.75;1.23;;;29.10;42.70;;;;;;5092132;28;20681;-54
2023/02/06 10:38:07;;;;;;;2.88;1.35;;;29.10;42.70;;;;;;5092080;28;20204;-53
2023/02/06 10:40:48;;;;;;;3.85;1.33;;;29.10;42.70;;;;;;5092041;28;20198;-52
2023/02/06 10:43:30;;;;;;;5.15;1.40;;;29.00;42.70;;;;;;5092057;28;20209;-53
2023/02/06 10:46:19;;;;;;;3.30;1.75;;;29.00;42.70;;;;;;5091840;28;20431;-54
2023/02/06 10:48:58;;;;;;;2.88;1.52;;;29.00;42.70;;;;;;5071680;28;20219;-52
2023/02/06 10:51:32;;;;;;;4.13;1.42;;;28.90;42.70;;;;;;5071554;28;20666;-52
2023/02/06 10:54:05;;;;;;;2.50;1.50;;;28.90;42.70;;;;;;5071643;28;20198;-48
2023/02/06 10:56:44;;;;;;;1.73;1.05;;;28.80;42.80;;;;;;5071968;28;20195;-52
2023/02/06 10:59:23;;;;;;;1.88;1.00;;;28.80;42.80;;;;;;5071774;28;20218;-52
2023/02/06 11:02:19;;;;;;;2.65;1.33;;;28.80;42.80;;;;;;5071056;28;20209;-49
2023/02/06 11:04:56;;;;;;;2.15;1.20;;;28.70;42.80;;;;;;5071040;28;20190;-49
2023/02/06 11:07:31;;;;;;;1.92;1.02;;;28.70;42.80;;;;;;5071480;28;20195;-53
2023/02/06 11:10:02;;;;;;;1.75;1.20;;;28.70;42.80;;;;;;5071731;28;20221;-49
2023/02/06 11:12:35;;;;;;;2.20;1.08;;;28.70;42.80;;;;;;5071742;28;20222;-51
2023/02/06 11:15:10;;;;;;;3.80;1.55;;;28.60;42.80;;;;;;5071136;28;20195;-53
2023/02/06 11:17:43;;;;;;;2.80;1.30;;;28.60;42.80;;;;;;5070995;28;20201;-48
2023/02/06 11:20:22;;;;;;;2.55;1.20;;;28.60;42.80;;;;;;5071323;28;20717;-51
2023/02/06 11:22:53;;;;;;;2.45;1.50;;;28.60;42.90;;;;;;5071532;28;20264;-51
2023/02/06 11:25:32;;;;;;;1.52;0.80;;;28.50;42.80;;;;;;5072796;28;20577;-53
2023/02/06 11:28:04;;;;;;;2.22;1.13;;;28.50;42.80;;;;;;5071421;28;20324;-51
2023/02/06 11:30:37;;;;;;;1.42;1.15;;;28.50;42.90;;;;;;5071565;28;20271;-50
2023/02/06 11:33:23;;;;;;;2.58;1.00;;;28.40;42.80;;;;;;5071534;28;20647;-51
2023/02/06 11:35:57;;;;;;;2.00;1.15;;;28.40;42.80;;;;;;5071470;28;20195;-51
2023/02/06 11:38:30;;;;;;;2.08;1.30;;;28.40;42.90;;;;;;5087965;28;20225;-54
2023/02/06 11:41:02;;;;;;;2.00;0.90;;;28.30;42.80;;;;;;5091247;28;20225;-51
2023/02/06 11:43:45;;;;;;;2.20;1.17;;;28.30;42.90;;;;;;5091508;28;20226;-52
2023/02/06 11:46:21;;;;;;;2.05;1.00;;;28.30;42.90;;;;;;5091479;28;20198;-54
2023/02/06 11:49:09;;;;;;;3.10;1.05;;;28.20;42.90;;;;;;5091131;28;20565;-49
2023/02/06 11:51:52;;;;;;;1.67;0.90;;;28.20;42.90;;;;;;5091661;28;20273;-54
2023/02/06 11:54:27;;;;;;;2.08;1.13;;;28.20;42.90;;;;;;5091592;28;20198;-53
2023/02/06 11:57:21;;;;;;;2.03;1.10;;;28.20;43.00;;;;;;5091533;28;20280;-49
2023/02/06 11:59:54;;;;;;;2.25;1.23;;;28.10;43.00;;;;;;5091035;28;20229;-52
2023/02/06 12:02:30;;;;;;;2.55;1.00;;;28.10;43.00;;;;;;5090970;28;20213;-51
2023/02/06 12:05:08;;;;;;;1.02;0.75;;;28.10;43.00;;;;;;5091405;28;20744;-52
2023/02/06 12:07:41;;;;;;;1.38;0.82;;;28.10;43.00;;;;;;5091313;28;20209;-52
2023/02/06 12:10:16;;;;;;;1.65;1.10;;;28.00;43.00;;;;;;5091042;28;20218;-52
2023/02/06 12:12:51;;;;;;;1.80;0.90;;;28.00;43.00;;;;;;5091446;28;20649;-52
2023/02/06 12:15:25;;;;;;;1.58;1.00;;;28.00;43.00;;;;;;5095193;28;20197;-49
2023/02/06 12:17:58;;;;;;;1.85;1.00;;;27.90;43.00;;;;;;5094835;28;20202;-53
2023/02/06 12:20:33;;;;;;;1.63;0.90;;;27.90;43.00;;;;;;5094743;28;20201;-54
2023/02/06 12:23:07;;;;;;;1.98;0.93;;;27.90;43.60;;;;;;5094699;28;20228;-51
2023/02/06 12:25:40;;;;;;;1.70;0.88;;;27.90;43.10;;;;;;5095120;28;20194;-55
2023/02/06 12:28:16;;;;;;;1.08;0.80;;;27.80;43.10;;;;;;5094902;28;20617;-51
2023/02/06 12:30:54;;;;;;;1.65;0.80;;;27.80;43.10;;;;;;5095111;28;20200;-50
2023/02/06 12:33:32;;;;;;;2.33;1.02;;;27.80;43.10;;;;;;5094840;28;20194;-54
2023/02/06 12:36:11;;;;;;;1.98;1.02;;;27.70;43.10;;;;;;5095178;28;20255;-54
2023/02/06 12:38:47;;;;;;;1.67;0.80;;;27.70;43.10;;;;;;5085348;28;20214;-54
2023/02/06 12:41:30;;;;;;;2.33;0.98;;;27.70;43.10;;;;;;5078118;28;20197;-50
2023/02/06 12:44:07;;;;;;;1.73;0.88;;;27.70;43.10;;;;;;5074319;28;20222;-53
2023/02/06 12:46:38;;;;;;;1.35;0.80;;;27.60;43.10;;;;;;5088480;28;20190;-52
2023/02/06 12:49:16;;;;;;;2.28;0.90;;;27.60;43.10;;;;;;5094035;28;20214;-51
2023/02/06 12:51:55;;;;;;;1.30;0.90;;;27.60;43.20;;;;;;5094737;28;20196;-51
2023/02/06 12:54:29;;;;;;;1.67;0.90;;;27.50;43.10;;;;;;5094362;28;20202;-48
2023/02/06 12:57:05;;;;;;;2.53;1.10;;;27.50;43.10;;;;;;5094521;28;20204;-50
2023/02/06 13:00:13;;;;;;;1.13;0.77;;;27.50;43.20;;;;;;5093809;28;20209;-50
2023/02/06 13:03:22;;;;;;;1.60;0.80;;;27.50;43.30;;;;;;5063561;28;20294;-48
2023/02/06 13:05:55;;;;;;;2.00;0.90;;;27.40;43.20;;;;;;5064100;28;20198;-49
2023/02/06 13:08:32;;;;;;;1.92;0.75;;;27.40;43.20;;;;;;5079212;28;20234;-50
2023/02/06 13:11:05;;;;;;;1.58;0.90;;;27.40;43.30;;;;;;5074096;28;20195;-48
2023/02/06 13:13:38;;;;;;;1.27;0.90;;;27.40;43.30;;;;;;5073787;28;20198;-49
2023/02/06 13:16:10;;;;;;;2.55;1.05;;;27.40;43.30;;;;;;5073466;28;20226;-51
2023/02/06 13:18:54;;;;;;;2.05;1.15;;;27.30;43.30;;;;;;5074013;28;20222;-49
2023/02/06 13:21:31;;;;;;;1.75;0.80;;;27.30;43.30;;;;;;5073731;28;20199;-49
2023/02/06 13:24:21;;;;;;;1.65;1.05;;;27.30;43.30;;;;;;5075588;28;20660;-51